createdAt,value
2018-11-02T00:01:41.497Z,1010.32
2018-11-02T00:02:41.438Z,1010.33
2018-11-02T00:04:33.164Z,1010.34
2018-11-02T00:05:33.102Z,1010.38
2018-11-02T00:07:24.848Z,1010.44
2018-11-02T00:08:24.767Z,1010.52
2018-11-02T00:10:16.537Z,1010.68
2018-11-02T00:11:16.455Z,1010.77
2018-11-02T00:13:08.216Z,1010.81
2018-11-02T00:14:08.161Z,1010.82
2018-11-02T00:15:59.928Z,1010.99
2018-11-02T00:16:59.840Z,1011.02
2018-11-02T00:18:51.593Z,1011.00
2018-11-02T00:19:51.524Z,1010.98
2018-11-02T00:21:43.323Z,1010.97
2018-11-02T00:22:43.253Z,1010.88
2018-11-02T00:24:34.991Z,1010.86
2018-11-02T00:25:34.918Z,1010.83
2018-11-02T00:27:26.704Z,1010.79
2018-11-02T00:28:26.608Z,1010.82
2018-11-02T00:30:18.374Z,1010.82
2018-11-02T00:31:18.306Z,1010.80
2018-11-02T00:33:10.070Z,1010.78
2018-11-02T00:34:10.000Z,1010.77
2018-11-02T00:36:01.765Z,1010.83
2018-11-02T00:37:01.680Z,1010.86
2018-11-02T00:38:53.431Z,1010.90
2018-11-02T00:39:53.375Z,1010.90
2018-11-02T00:41:45.124Z,1010.93
2018-11-02T00:42:45.043Z,1010.86
2018-11-02T00:44:36.834Z,1010.88
2018-11-02T00:45:36.856Z,1010.85
2018-11-02T00:47:28.543Z,1010.89
2018-11-02T00:48:28.460Z,1010.91
2018-11-02T00:50:20.262Z,1010.92
2018-11-02T00:51:20.173Z,1010.93
2018-11-02T00:53:12.116Z,1010.99
2018-11-02T00:54:12.044Z,1011.00
2018-11-02T00:56:03.796Z,1010.97
2018-11-02T00:57:03.718Z,1010.96
2018-11-02T00:58:55.500Z,1010.86
2018-11-02T00:59:55.428Z,1010.87
2018-11-02T01:01:47.327Z,1010.80
2018-11-02T01:02:47.234Z,1010.85
2018-11-02T01:04:39.011Z,1010.90
2018-11-02T01:05:39.031Z,1010.89
2018-11-02T01:07:30.710Z,1010.84
2018-11-02T01:08:30.619Z,1010.89
2018-11-02T01:10:22.372Z,1010.82
2018-11-02T01:11:22.310Z,1010.81
2018-11-02T01:13:14.089Z,1010.78
2018-11-02T01:14:13.999Z,1010.83
2018-11-02T01:16:05.798Z,1010.87
2018-11-02T01:17:05.722Z,1010.90
2018-11-02T01:18:57.472Z,1010.91
2018-11-02T01:19:57.405Z,1010.94
2018-11-02T01:21:49.178Z,1010.96
2018-11-02T01:22:49.098Z,1010.94
2018-11-02T01:24:41.061Z,1010.90
2018-11-02T01:25:40.983Z,1010.84
2018-11-02T01:27:33.753Z,1010.78
2018-11-02T01:28:33.669Z,1010.78
2018-11-02T01:30:25.427Z,1010.87
2018-11-02T01:31:25.359Z,1010.91
2018-11-02T01:33:17.110Z,1010.90
2018-11-02T01:34:17.025Z,1010.94
2018-11-02T01:36:08.792Z,1010.98
2018-11-02T01:37:08.723Z,1011.08
2018-11-02T01:39:00.487Z,1011.15
2018-11-02T01:40:00.389Z,1011.20
2018-11-02T01:41:52.169Z,1011.23
2018-11-02T01:42:52.080Z,1011.28
2018-11-02T01:44:43.833Z,1011.36
2018-11-02T01:45:43.767Z,1011.33
2018-11-02T01:47:35.549Z,1011.42
2018-11-02T01:48:35.469Z,1011.44
2018-11-02T01:50:27.265Z,1011.49
2018-11-02T01:51:27.193Z,1011.50
2018-11-02T01:53:18.979Z,1011.52
2018-11-02T01:54:18.890Z,1011.56
2018-11-02T01:56:10.677Z,1011.43
2018-11-02T01:57:10.565Z,1011.40
2018-11-02T01:59:02.366Z,1011.41
2018-11-02T02:00:02.271Z,1011.41
2018-11-02T02:01:54.057Z,1011.44
2018-11-02T02:02:53.982Z,1011.46
2018-11-02T02:04:45.747Z,1011.42
2018-11-02T02:05:45.683Z,1011.42
2018-11-02T02:07:37.459Z,1011.46
2018-11-02T02:08:37.378Z,1011.48
2018-11-02T02:10:29.128Z,1011.49
2018-11-02T02:11:29.051Z,1011.49
2018-11-02T02:13:20.939Z,1011.51
2018-11-02T02:14:20.768Z,1011.53
2018-11-02T02:16:12.519Z,1011.51
2018-11-02T02:17:12.437Z,1011.51
2018-11-02T02:19:04.240Z,1011.49
2018-11-02T02:20:04.127Z,1011.54
2018-11-02T02:21:55.955Z,1011.50
2018-11-02T02:22:55.857Z,1011.48
2018-11-02T02:24:47.594Z,1011.46
2018-11-02T02:25:47.535Z,1011.45
2018-11-02T02:27:39.289Z,1011.48
2018-11-02T02:28:39.218Z,1011.52
2018-11-02T02:30:30.975Z,1011.46
2018-11-02T02:31:30.896Z,1011.49
2018-11-02T02:33:22.732Z,1011.47
2018-11-02T02:34:22.609Z,1011.54
2018-11-02T02:36:14.346Z,1011.50
2018-11-02T02:37:14.385Z,1011.55
2018-11-02T02:39:07.242Z,1011.56
2018-11-02T02:40:06.985Z,1011.65
2018-11-02T02:41:58.775Z,1011.66
2018-11-02T02:42:58.673Z,1011.69
2018-11-02T02:44:51.466Z,1011.79
2018-11-02T02:45:51.385Z,1011.83
2018-11-02T02:47:43.221Z,1011.89
2018-11-02T02:48:43.136Z,1011.96
2018-11-02T02:50:34.872Z,1012.03
2018-11-02T02:51:34.797Z,1012.06
2018-11-02T02:53:26.596Z,1012.00
2018-11-02T02:54:26.502Z,1012.00
2018-11-02T02:56:18.256Z,1012.00
2018-11-02T02:57:18.187Z,1011.98
2018-11-02T02:59:09.964Z,1011.93
2018-11-02T03:00:09.891Z,1011.90
2018-11-02T03:02:01.655Z,1011.99
2018-11-02T03:03:01.556Z,1012.00
2018-11-02T03:04:53.353Z,1011.97
2018-11-02T03:05:53.280Z,1012.02
2018-11-02T03:07:45.034Z,1012.05
2018-11-02T03:08:44.964Z,1012.04
2018-11-02T03:10:36.711Z,1012.02
2018-11-02T03:11:36.663Z,1012.08
2018-11-02T03:13:28.406Z,1012.04
2018-11-02T03:14:28.316Z,1012.09
2018-11-02T03:16:20.070Z,1012.11
2018-11-02T03:17:19.988Z,1012.11
2018-11-02T03:19:11.749Z,1012.13
2018-11-02T03:20:11.660Z,1012.14
2018-11-02T03:22:03.417Z,1012.10
2018-11-02T03:23:03.347Z,1012.12
2018-11-02T03:24:55.108Z,1012.19
2018-11-02T03:25:55.039Z,1012.20
2018-11-02T03:27:46.823Z,1012.24
2018-11-02T03:28:46.730Z,1012.26
2018-11-02T03:30:38.470Z,1012.25
2018-11-02T03:31:38.407Z,1012.22
2018-11-02T03:33:30.194Z,1012.28
2018-11-02T03:34:30.096Z,1012.26
2018-11-02T03:36:21.909Z,1012.25
2018-11-02T03:37:21.823Z,1012.26
2018-11-02T03:39:13.580Z,1012.25
2018-11-02T03:40:13.505Z,1012.23
2018-11-02T03:42:05.288Z,1012.23
2018-11-02T03:43:05.228Z,1012.25
2018-11-02T03:44:56.943Z,1012.27
2018-11-02T03:45:56.863Z,1012.24
2018-11-02T03:47:48.657Z,1012.33
2018-11-02T03:48:48.558Z,1012.27
2018-11-02T03:50:40.316Z,1012.31
2018-11-02T03:51:40.239Z,1012.36
2018-11-02T03:53:32.048Z,1012.40
2018-11-02T03:54:31.955Z,1012.40
2018-11-02T03:56:23.729Z,1012.47
2018-11-02T03:57:23.644Z,1012.41
2018-11-02T03:59:15.416Z,1012.39
2018-11-02T04:00:15.351Z,1012.40
2018-11-02T04:02:07.051Z,1012.39
2018-11-02T04:03:07.005Z,1012.34
2018-11-02T04:04:58.774Z,1012.37
2018-11-02T04:05:58.695Z,1012.43
2018-11-02T04:07:50.452Z,1012.44
2018-11-02T04:08:50.367Z,1012.44
2018-11-02T04:10:42.160Z,1012.40
2018-11-02T04:11:42.041Z,1012.41
2018-11-02T04:13:33.819Z,1012.40
2018-11-02T04:14:33.734Z,1012.41
2018-11-02T04:16:25.483Z,1012.43
2018-11-02T04:17:25.422Z,1012.47
2018-11-02T04:19:17.185Z,1012.56
2018-11-02T04:20:17.117Z,1012.59
2018-11-02T04:22:08.843Z,1012.57
2018-11-02T04:23:08.771Z,1012.50
2018-11-02T04:25:00.569Z,1012.44
2018-11-02T04:26:00.454Z,1012.44
2018-11-02T04:27:52.214Z,1012.46
2018-11-02T04:28:52.138Z,1012.47
2018-11-02T04:30:44.003Z,1012.52
2018-11-02T04:31:43.859Z,1012.59
2018-11-02T04:33:35.636Z,1012.59
2018-11-02T04:34:35.545Z,1012.61
2018-11-02T04:36:27.353Z,1012.58
2018-11-02T04:37:27.280Z,1012.60
2018-11-02T04:39:19.050Z,1012.61
2018-11-02T04:40:18.978Z,1012.61
2018-11-02T04:42:10.752Z,1012.68
2018-11-02T04:43:10.686Z,1012.72
2018-11-02T04:45:02.456Z,1012.72
2018-11-02T04:46:02.375Z,1012.72
2018-11-02T04:47:54.151Z,1012.76
2018-11-02T04:48:54.073Z,1012.77
2018-11-02T04:50:45.889Z,1012.78
2018-11-02T04:51:45.740Z,1012.81
2018-11-02T04:53:37.528Z,1012.88
2018-11-02T04:54:37.420Z,1012.91
2018-11-02T04:56:30.236Z,1012.94
2018-11-02T04:57:30.157Z,1012.97
2018-11-02T04:59:21.971Z,1012.94
2018-11-02T05:00:21.894Z,1012.97
2018-11-02T05:02:14.649Z,1012.99
2018-11-02T05:03:14.599Z,1012.97
2018-11-02T05:05:06.353Z,1012.92
2018-11-02T05:06:06.272Z,1012.93
2018-11-02T05:07:58.020Z,1012.94
2018-11-02T05:08:57.942Z,1012.98
2018-11-02T05:10:49.730Z,1013.03
2018-11-02T05:11:49.651Z,1013.11
2018-11-02T05:13:41.439Z,1013.17
2018-11-02T05:14:41.359Z,1013.23
2018-11-02T05:16:33.122Z,1013.15
2018-11-02T05:17:33.037Z,1013.13
2018-11-02T05:19:24.801Z,1013.09
2018-11-02T05:20:24.743Z,1013.11
2018-11-02T05:22:16.504Z,1013.06
2018-11-02T05:23:16.437Z,1013.06
2018-11-02T05:25:08.212Z,1013.07
2018-11-02T05:26:08.117Z,1013.13
2018-11-02T05:27:59.897Z,1013.15
2018-11-02T05:28:59.809Z,1013.18
2018-11-02T05:30:51.588Z,1013.17
2018-11-02T05:31:51.508Z,1013.18
2018-11-02T05:33:43.272Z,1013.30
2018-11-02T05:34:43.193Z,1013.30
2018-11-02T05:36:34.982Z,1013.35
2018-11-02T05:37:34.920Z,1013.33
2018-11-02T05:39:26.821Z,1013.44
2018-11-02T05:40:26.783Z,1013.47
2018-11-02T05:42:18.472Z,1013.53
2018-11-02T05:43:18.421Z,1013.57
2018-11-02T05:45:10.162Z,1013.60
2018-11-02T05:46:10.084Z,1013.61
2018-11-02T05:48:01.874Z,1013.65
2018-11-02T05:49:01.777Z,1013.65
2018-11-02T05:50:53.609Z,1013.63
2018-11-02T05:51:53.455Z,1013.71
2018-11-02T05:53:45.219Z,1013.68
2018-11-02T05:54:45.134Z,1013.71
2018-11-02T05:56:36.897Z,1013.71
2018-11-02T05:57:36.815Z,1013.67
2018-11-02T05:59:28.601Z,1013.74
2018-11-02T06:00:28.509Z,1013.79
2018-11-02T06:02:20.266Z,1013.81
2018-11-02T06:03:20.193Z,1013.79
2018-11-02T06:05:11.980Z,1013.82
2018-11-02T06:06:11.883Z,1013.83
2018-11-02T06:08:03.699Z,1013.90
2018-11-02T06:09:03.552Z,1013.91
2018-11-02T06:10:55.340Z,1013.86
2018-11-02T06:11:55.240Z,1013.90
2018-11-02T06:13:47.049Z,1013.82
2018-11-02T06:14:46.997Z,1013.79
2018-11-02T06:16:38.827Z,1013.74
2018-11-02T06:17:38.689Z,1013.74
2018-11-02T06:19:30.433Z,1013.72
2018-11-02T06:20:30.358Z,1013.73
2018-11-02T06:22:22.145Z,1013.77
2018-11-02T06:23:22.063Z,1013.82
2018-11-02T06:25:13.830Z,1013.86
2018-11-02T06:26:13.758Z,1013.86
2018-11-02T06:28:05.502Z,1013.99
2018-11-02T06:29:05.492Z,1013.98
2018-11-02T06:30:57.199Z,1014.06
2018-11-02T06:31:57.124Z,1014.03
2018-11-02T06:33:48.866Z,1014.04
2018-11-02T06:34:48.808Z,1014.02
2018-11-02T06:36:40.612Z,1013.98
2018-11-02T06:37:40.551Z,1014.06
2018-11-02T06:39:32.284Z,1014.08
2018-11-02T06:40:32.234Z,1014.15
2018-11-02T06:42:23.987Z,1014.22
2018-11-02T06:43:23.893Z,1014.23
2018-11-02T06:45:15.714Z,1014.31
2018-11-02T06:46:15.605Z,1014.43
2018-11-02T06:48:07.348Z,1014.44
2018-11-02T06:49:07.277Z,1014.42
2018-11-02T06:50:59.130Z,1014.41
2018-11-02T06:51:58.983Z,1014.46
2018-11-02T06:53:50.721Z,1014.45
2018-11-02T06:54:50.653Z,1014.51
2018-11-02T06:56:42.426Z,1014.53
2018-11-02T06:57:42.346Z,1014.59
2018-11-02T06:59:34.224Z,1014.64
2018-11-02T07:00:34.169Z,1014.66
2018-11-02T07:02:25.792Z,1014.67
2018-11-02T07:03:25.709Z,1014.73
2018-11-02T07:05:18.501Z,1014.82
2018-11-02T07:06:18.395Z,1014.84
2018-11-02T07:08:11.475Z,1014.88
2018-11-02T07:09:11.100Z,1014.86
2018-11-02T07:11:03.042Z,1014.82
2018-11-02T07:12:02.969Z,1014.83
2018-11-02T07:13:54.768Z,1014.89
2018-11-02T07:14:54.698Z,1014.88
2018-11-02T07:16:46.451Z,1014.86
2018-11-02T07:17:46.374Z,1014.89
2018-11-02T07:19:38.164Z,1014.83
2018-11-02T07:20:38.063Z,1014.85
2018-11-02T07:22:29.846Z,1014.88
2018-11-02T07:23:29.762Z,1014.92
2018-11-02T07:25:22.731Z,1015.00
2018-11-02T07:26:22.501Z,1015.04
2018-11-02T07:28:14.330Z,1015.01
2018-11-02T07:29:14.249Z,1015.05
2018-11-02T07:31:06.070Z,1015.04
2018-11-02T07:32:05.945Z,1015.06
2018-11-02T07:33:57.782Z,1015.10
2018-11-02T07:34:57.760Z,1015.06
2018-11-02T07:36:50.549Z,1015.08
2018-11-02T07:37:50.455Z,1015.07
2018-11-02T07:39:42.239Z,1015.09
2018-11-02T07:40:42.155Z,1015.10
2018-11-02T07:42:34.055Z,1015.07
2018-11-02T07:43:33.989Z,1015.19
2018-11-02T07:45:25.819Z,1015.29
2018-11-02T07:46:25.891Z,1015.28
2018-11-02T07:48:17.597Z,1015.23
2018-11-02T07:49:17.441Z,1015.20
2018-11-02T07:51:10.311Z,1015.20
2018-11-02T07:52:10.227Z,1015.17
2018-11-02T07:54:02.011Z,1015.23
2018-11-02T07:55:01.940Z,1015.31
2018-11-02T07:56:53.763Z,1015.37
2018-11-02T07:57:53.685Z,1015.40
2018-11-02T07:59:46.483Z,1015.47
2018-11-02T08:02:25.716Z,1015.62
2018-11-02T08:03:25.616Z,1015.59
2018-11-02T08:05:17.362Z,1015.62
2018-11-02T08:06:17.298Z,1015.56
2018-11-02T08:08:09.055Z,1015.59
2018-11-02T08:09:08.981Z,1015.63
2018-11-02T08:11:00.754Z,1015.64
2018-11-02T08:12:00.696Z,1015.69
2018-11-02T08:13:52.514Z,1015.74
2018-11-02T08:14:52.379Z,1015.83
2018-11-02T08:16:44.141Z,1015.81
2018-11-02T08:17:44.124Z,1015.88
2018-11-02T08:19:35.890Z,1015.86
2018-11-02T08:20:35.823Z,1015.94
2018-11-02T08:22:27.598Z,1016.00
2018-11-02T08:23:27.513Z,1016.00
2018-11-02T08:25:19.297Z,1016.10
2018-11-02T08:26:19.338Z,1016.10
2018-11-02T08:28:11.008Z,1016.17
2018-11-02T08:29:10.926Z,1016.18
2018-11-02T08:31:03.771Z,1016.22
2018-11-02T08:32:03.740Z,1016.17
2018-11-02T08:33:55.538Z,1016.24
2018-11-02T08:34:55.422Z,1016.21
2018-11-02T08:36:48.218Z,1016.21
2018-11-02T08:37:48.126Z,1016.25
2018-11-02T08:39:40.912Z,1016.23
2018-11-02T08:40:40.853Z,1016.29
2018-11-02T08:42:33.657Z,1016.25
2018-11-02T08:43:33.570Z,1016.29
2018-11-02T08:45:25.351Z,1016.28
2018-11-02T08:46:25.327Z,1016.36
2018-11-02T08:48:18.097Z,1016.34
2018-11-02T08:49:18.003Z,1016.32
2018-11-02T08:51:10.774Z,1016.31
2018-11-02T08:52:10.734Z,1016.28
2018-11-02T08:54:02.529Z,1016.31
2018-11-02T08:55:02.477Z,1016.28
2018-11-02T08:56:54.244Z,1016.30
2018-11-02T08:57:54.239Z,1016.31
2018-11-02T08:59:47.102Z,1016.32
2018-11-02T09:00:46.923Z,1016.31
2018-11-02T09:02:38.680Z,1016.32
2018-11-02T09:03:38.600Z,1016.32
2018-11-02T09:05:30.357Z,1016.27
2018-11-02T09:06:30.300Z,1016.24
2018-11-02T09:08:22.065Z,1016.22
2018-11-02T09:09:22.059Z,1016.22
2018-11-02T09:11:13.860Z,1016.26
2018-11-02T09:12:13.890Z,1016.30
2018-11-02T09:14:05.766Z,1016.35
2018-11-02T09:15:05.563Z,1016.39
2018-11-02T09:16:57.347Z,1016.47
2018-11-02T09:17:57.297Z,1016.48
2018-11-02T09:19:49.009Z,1016.51
2018-11-02T09:20:48.929Z,1016.53
2018-11-02T09:22:41.770Z,1016.60
2018-11-02T09:23:41.672Z,1016.63
2018-11-02T09:25:33.437Z,1016.64
2018-11-02T09:26:33.316Z,1016.58
2018-11-02T09:28:25.092Z,1016.55
2018-11-02T09:29:25.028Z,1016.63
2018-11-02T09:31:16.893Z,1016.72
2018-11-02T09:32:16.737Z,1016.73
2018-11-02T09:34:08.671Z,1016.72
2018-11-02T09:35:08.558Z,1016.74
2018-11-02T09:37:00.327Z,1016.75
2018-11-02T09:38:00.271Z,1016.74
2018-11-02T09:39:52.050Z,1016.81
2018-11-02T09:40:51.944Z,1016.87
2018-11-02T09:42:43.898Z,1016.85
2018-11-02T09:43:43.651Z,1016.94
2018-11-02T09:45:35.406Z,1016.89
2018-11-02T09:46:35.325Z,1016.96
2018-11-02T09:48:27.134Z,1016.85
2018-11-02T09:49:27.077Z,1016.83
2018-11-02T09:51:19.918Z,1016.89
2018-11-02T09:52:19.755Z,1016.92
2018-11-02T09:54:11.814Z,1016.91
2018-11-02T09:55:11.722Z,1016.89
2018-11-02T09:57:03.533Z,1016.82
2018-11-02T09:58:03.490Z,1016.80
2018-11-02T09:59:55.240Z,1016.80
2018-11-02T10:00:55.163Z,1016.86
2018-11-02T10:02:46.921Z,1016.83
2018-11-02T10:03:46.848Z,1016.87
2018-11-02T10:05:38.619Z,1016.85
2018-11-02T10:06:38.561Z,1016.83
2018-11-02T10:08:30.351Z,1016.80
2018-11-02T10:09:30.255Z,1016.78
2018-11-02T10:11:22.046Z,1016.74
2018-11-02T10:12:22.060Z,1016.74
2018-11-02T10:14:14.721Z,1016.81
2018-11-02T10:15:14.720Z,1016.84
2018-11-02T10:17:06.428Z,1016.86
2018-11-02T10:18:06.344Z,1016.86
2018-11-02T10:19:58.098Z,1016.88
2018-11-02T10:20:58.017Z,1016.87
2018-11-02T10:22:49.926Z,1016.82
2018-11-02T10:23:49.759Z,1016.84
2018-11-02T10:25:41.470Z,1016.75
2018-11-02T10:26:41.394Z,1016.76
2018-11-02T10:28:33.155Z,1016.84
2018-11-02T10:29:33.120Z,1016.89
2018-11-02T10:31:24.861Z,1016.91
2018-11-02T10:32:24.827Z,1016.98
2018-11-02T10:34:16.571Z,1017.01
2018-11-02T10:35:16.518Z,1017.00
2018-11-02T10:37:08.319Z,1016.93
2018-11-02T10:38:08.160Z,1016.98
2018-11-02T10:39:59.955Z,1016.93
2018-11-02T10:40:59.854Z,1016.93
2018-11-02T10:42:51.720Z,1016.88
2018-11-02T10:43:51.629Z,1016.91
2018-11-02T10:45:43.456Z,1016.91
2018-11-02T10:46:43.327Z,1016.92
2018-11-02T10:48:35.164Z,1016.94
2018-11-02T10:49:35.036Z,1016.91
2018-11-02T10:51:26.812Z,1016.99
2018-11-02T10:52:26.744Z,1017.06
2018-11-02T10:54:18.553Z,1017.08
2018-11-02T10:55:18.446Z,1017.09
2018-11-02T10:57:10.211Z,1017.10
2018-11-02T10:58:10.133Z,1017.07
2018-11-02T11:00:01.991Z,1017.18
2018-11-02T11:01:02.016Z,1017.19
2018-11-02T11:02:53.615Z,1017.17
2018-11-02T11:03:53.549Z,1017.24
2018-11-02T11:05:45.829Z,1017.20
2018-11-02T11:06:45.599Z,1017.22
2018-11-02T11:08:37.835Z,1017.29
2018-11-02T11:09:37.751Z,1017.28
2018-11-02T11:11:29.423Z,1017.21
2018-11-02T11:12:29.469Z,1017.24
2018-11-02T11:14:22.292Z,1017.20
2018-11-02T11:15:22.100Z,1017.26
2018-11-02T11:17:14.980Z,1017.23
2018-11-02T11:18:14.879Z,1017.17
2018-11-02T11:20:06.668Z,1017.21
2018-11-02T11:21:07.683Z,1017.21
2018-11-02T11:23:02.485Z,1017.22
2018-11-02T11:24:01.120Z,1017.14
2018-11-02T11:25:52.941Z,1017.21
2018-11-02T11:26:52.985Z,1017.20
2018-11-02T11:28:47.026Z,1017.22
2018-11-02T11:29:45.618Z,1017.23
2018-11-02T11:31:37.754Z,1017.27
2018-11-02T11:32:37.515Z,1017.26
2018-11-02T11:34:29.443Z,1017.26
2018-11-02T11:35:30.031Z,1017.30
2018-11-02T11:37:21.850Z,1017.29
2018-11-02T11:38:21.859Z,1017.37
2018-11-02T11:40:15.423Z,1017.41
2018-11-02T11:41:14.838Z,1017.42
2018-11-02T11:43:07.699Z,1017.39
2018-11-02T11:44:07.685Z,1017.45
2018-11-02T11:46:00.042Z,1017.45
2018-11-02T11:47:00.016Z,1017.50
2018-11-02T11:48:52.062Z,1017.43
2018-11-02T11:49:51.884Z,1017.36
2018-11-02T11:51:44.867Z,1017.33
2018-11-02T11:52:44.614Z,1017.32
2018-11-02T11:54:38.154Z,1017.37
2018-11-02T11:55:37.788Z,1017.46
2018-11-02T11:57:31.099Z,1017.54
2018-11-02T11:58:30.929Z,1017.45
2018-11-02T12:00:24.170Z,1017.55
2018-11-02T12:01:23.911Z,1017.56
2018-11-02T12:03:16.158Z,1017.55
2018-11-02T12:04:16.032Z,1017.59
2018-11-02T12:06:09.017Z,1017.54
2018-11-02T12:07:08.986Z,1017.60
2018-11-02T12:09:01.031Z,1017.59
2018-11-02T12:10:00.819Z,1017.64
2018-11-02T12:11:52.839Z,1017.69
2018-11-02T12:12:52.673Z,1017.64
2018-11-02T12:14:45.717Z,1017.58
2018-11-02T12:15:45.643Z,1017.59
2018-11-02T12:17:37.478Z,1017.48
2018-11-02T12:18:37.379Z,1017.59
2018-11-02T12:20:29.134Z,1017.50
2018-11-02T12:21:29.038Z,1017.54
2018-11-02T12:23:22.102Z,1017.58
2018-11-02T12:24:21.743Z,1017.58
2018-11-02T12:26:13.583Z,1017.63
2018-11-02T12:27:13.677Z,1017.64
2018-11-02T12:29:06.278Z,1017.68
2018-11-02T12:30:06.236Z,1017.62
2018-11-02T12:31:58.087Z,1017.63
2018-11-02T12:32:57.984Z,1017.63
2018-11-02T12:34:50.811Z,1017.59
2018-11-02T12:35:50.717Z,1017.54
2018-11-02T12:37:42.477Z,1017.51
2018-11-02T12:38:42.409Z,1017.52
2018-11-02T12:40:35.259Z,1017.58
2018-11-02T12:41:35.110Z,1017.57
2018-11-02T12:43:27.020Z,1017.56
2018-11-02T12:44:26.829Z,1017.52
2018-11-02T12:46:18.910Z,1017.55
2018-11-02T12:47:18.681Z,1017.61
2018-11-02T12:49:10.682Z,1017.65
2018-11-02T12:50:10.500Z,1017.65
2018-11-02T12:52:02.166Z,1017.68
2018-11-02T12:53:02.070Z,1017.68
2018-11-02T12:54:53.853Z,1017.69
2018-11-02T12:55:53.775Z,1017.71
2018-11-02T12:57:45.602Z,1017.67
2018-11-02T12:58:45.501Z,1017.61
2018-11-02T13:00:37.282Z,1017.67
2018-11-02T13:01:37.197Z,1017.73
2018-11-02T13:03:28.952Z,1017.75
2018-11-02T13:04:28.894Z,1017.75
2018-11-02T13:06:20.694Z,1017.82
2018-11-02T13:07:20.591Z,1017.84
2018-11-02T13:09:12.520Z,1017.89
2018-11-02T13:10:12.356Z,1017.88
2018-11-02T13:12:04.101Z,1017.87
2018-11-02T13:13:04.017Z,1017.88
2018-11-02T13:14:55.804Z,1017.94
2018-11-02T13:15:55.795Z,1017.90
2018-11-02T13:17:47.453Z,1017.90
2018-11-02T13:18:47.453Z,1017.93
2018-11-02T13:20:39.229Z,1017.90
2018-11-02T13:21:39.187Z,1017.89
2018-11-02T13:23:30.906Z,1017.96
2018-11-02T13:24:30.836Z,1017.91
2018-11-02T13:26:22.777Z,1018.01
2018-11-02T13:27:22.943Z,1017.97
2018-11-02T13:29:14.388Z,1017.94
2018-11-02T13:30:14.498Z,1017.93
2018-11-02T13:32:06.059Z,1017.92
2018-11-02T13:33:05.987Z,1017.94
2018-11-02T13:34:58.784Z,1017.96
2018-11-02T13:35:58.700Z,1018.02
2018-11-02T13:37:50.476Z,1018.08
2018-11-02T13:38:50.405Z,1018.11
2018-11-02T13:40:42.197Z,1018.13
2018-11-02T13:41:42.107Z,1018.15
2018-11-02T13:43:33.930Z,1018.15
2018-11-02T13:44:33.790Z,1018.22
2018-11-02T13:46:25.581Z,1018.22
2018-11-02T13:47:25.473Z,1018.23
2018-11-02T13:49:17.373Z,1018.32
2018-11-02T13:50:17.357Z,1018.35
2018-11-02T13:52:09.091Z,1018.36
2018-11-02T13:53:09.011Z,1018.43
2018-11-02T13:55:00.776Z,1018.44
2018-11-02T13:56:00.714Z,1018.42
2018-11-02T13:57:52.530Z,1018.41
2018-11-02T13:58:52.488Z,1018.40
2018-11-02T14:00:44.243Z,1018.39
2018-11-02T14:01:44.174Z,1018.39
2018-11-02T14:03:35.944Z,1018.40
2018-11-02T14:04:35.914Z,1018.36
2018-11-02T14:06:27.653Z,1018.35
2018-11-02T14:07:27.579Z,1018.32
2018-11-02T14:09:19.388Z,1018.26
2018-11-02T14:10:19.353Z,1018.26
2018-11-02T14:12:11.098Z,1018.24
2018-11-02T14:13:11.011Z,1018.21
2018-11-02T14:15:02.837Z,1018.27
2018-11-02T14:16:02.704Z,1018.26
2018-11-02T14:17:54.488Z,1018.27
2018-11-02T14:18:54.391Z,1018.29
2018-11-02T14:20:46.277Z,1018.33
2018-11-02T14:21:46.171Z,1018.31
2018-11-02T14:23:38.970Z,1018.37
2018-11-02T14:24:38.900Z,1018.37
2018-11-02T14:26:30.742Z,1018.39
2018-11-02T14:27:30.666Z,1018.40
2018-11-02T14:29:22.456Z,1018.46
2018-11-02T14:30:22.361Z,1018.46
2018-11-02T14:32:14.163Z,1018.50
2018-11-02T14:33:14.133Z,1018.53
2018-11-02T14:35:06.862Z,1018.57
2018-11-02T14:36:06.790Z,1018.63
2018-11-02T14:37:58.723Z,1018.65
2018-11-02T14:38:58.687Z,1018.59
2018-11-02T14:40:50.423Z,1018.63
2018-11-02T14:41:50.275Z,1018.61
2018-11-02T14:43:42.070Z,1018.64
2018-11-02T14:44:41.977Z,1018.67
2018-11-02T14:46:33.878Z,1018.62
2018-11-02T14:47:33.698Z,1018.65
2018-11-02T14:49:25.467Z,1018.64
2018-11-02T14:50:25.390Z,1018.67
2018-11-02T14:52:17.157Z,1018.72
2018-11-02T14:53:17.088Z,1018.70
2018-11-02T14:55:08.861Z,1018.66
2018-11-02T14:56:08.775Z,1018.65
2018-11-02T14:58:00.546Z,1018.64
2018-11-02T14:59:00.494Z,1018.66
2018-11-02T15:00:52.266Z,1018.73
2018-11-02T15:01:52.160Z,1018.73
2018-11-02T15:03:43.975Z,1018.82
2018-11-02T15:04:43.896Z,1018.83
2018-11-02T15:06:35.701Z,1018.82
2018-11-02T15:07:35.585Z,1018.80
2018-11-02T15:09:28.396Z,1018.80
2018-11-02T15:10:28.322Z,1018.82
2018-11-02T15:12:20.107Z,1018.84
2018-11-02T15:13:20.023Z,1018.87
2018-11-02T15:15:11.784Z,1018.89
2018-11-02T15:16:11.723Z,1018.90
2018-11-02T15:18:04.575Z,1018.94
2018-11-02T15:19:04.505Z,1018.98
2018-11-02T15:20:56.237Z,1019.01
2018-11-02T15:21:56.182Z,1019.02
2018-11-02T15:23:48.060Z,1019.04
2018-11-02T15:24:48.064Z,1019.07
2018-11-02T15:26:39.904Z,1019.05
2018-11-02T15:27:39.674Z,1019.09
2018-11-02T15:29:31.425Z,1019.15
2018-11-02T15:30:31.391Z,1019.13
2018-11-02T15:32:23.162Z,1019.18
2018-11-02T15:33:23.095Z,1019.15
2018-11-02T15:35:14.852Z,1019.11
2018-11-02T15:36:14.834Z,1019.09
2018-11-02T15:38:06.594Z,1019.15
2018-11-02T15:39:06.506Z,1019.14
2018-11-02T15:40:58.287Z,1019.23
2018-11-02T15:41:58.200Z,1019.21
2018-11-02T15:43:50.033Z,1019.27
2018-11-02T15:44:50.045Z,1019.32
2018-11-02T15:46:41.801Z,1019.39
2018-11-02T15:47:41.729Z,1019.43
2018-11-02T15:49:33.504Z,1019.48
2018-11-02T15:50:33.386Z,1019.49
2018-11-02T15:52:25.150Z,1019.54
2018-11-02T15:53:25.178Z,1019.57
2018-11-02T15:55:18.700Z,1019.63
2018-11-02T15:56:18.629Z,1019.58
2018-11-02T15:58:10.471Z,1019.57
2018-11-02T15:59:10.407Z,1019.60
2018-11-02T16:01:02.206Z,1019.65
2018-11-02T16:02:02.106Z,1019.68
2018-11-02T16:03:53.860Z,1019.68
2018-11-02T16:04:53.785Z,1019.70
2018-11-02T16:06:45.565Z,1019.78
2018-11-02T16:07:45.468Z,1019.81
2018-11-02T16:09:37.273Z,1019.83
2018-11-02T16:10:37.173Z,1019.86
2018-11-02T16:12:29.021Z,1019.81
2018-11-02T16:13:28.882Z,1019.77
2018-11-02T16:15:20.609Z,1019.68
2018-11-02T16:16:20.547Z,1019.69
2018-11-02T16:18:12.321Z,1019.68
2018-11-02T16:19:12.237Z,1019.62
2018-11-02T16:21:04.000Z,1019.61
2018-11-02T16:22:03.924Z,1019.58
2018-11-02T16:23:55.690Z,1019.60
2018-11-02T16:24:55.615Z,1019.59
2018-11-02T16:26:47.368Z,1019.62
2018-11-02T16:27:47.292Z,1019.63
2018-11-02T16:29:39.118Z,1019.62
2018-11-02T16:30:39.225Z,1019.57
2018-11-02T16:32:30.805Z,1019.56
2018-11-02T16:33:30.737Z,1019.55
2018-11-02T16:35:22.519Z,1019.64
2018-11-02T16:36:22.430Z,1019.63
2018-11-02T16:38:14.225Z,1019.62
2018-11-02T16:39:14.149Z,1019.63
2018-11-02T16:41:05.911Z,1019.61
2018-11-02T16:42:05.857Z,1019.60
2018-11-02T16:43:57.939Z,1019.60
2018-11-02T16:44:57.650Z,1019.58
2018-11-02T16:46:49.412Z,1019.55
2018-11-02T16:47:49.392Z,1019.58
2018-11-02T16:49:41.110Z,1019.58
2018-11-02T16:50:41.032Z,1019.59
2018-11-02T16:52:33.841Z,1019.64
2018-11-02T16:53:33.750Z,1019.67
2018-11-02T16:55:25.546Z,1019.72
2018-11-02T16:56:25.500Z,1019.73
2018-11-02T16:58:17.204Z,1019.77
2018-11-02T16:59:17.133Z,1019.81
2018-11-02T17:01:09.887Z,1019.89
2018-11-02T17:02:09.814Z,1019.87
2018-11-02T17:04:02.621Z,1020.02
2018-11-02T17:05:02.597Z,1020.03
2018-11-02T17:06:54.264Z,1020.08
2018-11-02T17:07:54.194Z,1020.13
2018-11-02T17:09:46.967Z,1020.17
2018-11-02T17:10:46.893Z,1020.18
2018-11-02T17:12:38.661Z,1020.24
2018-11-02T17:13:38.627Z,1020.30
2018-11-02T17:15:31.362Z,1020.36
2018-11-02T17:16:31.281Z,1020.40
2018-11-02T17:18:23.157Z,1020.40
2018-11-02T17:19:23.324Z,1020.45
2018-11-02T17:21:14.909Z,1020.42